Time;durP1;ratioP1;P1;durP2;ratioP2;P2;SDS_P1;SDS_P2;PMS_P1;PMS_P2;Temp;Humidity;BMP_temperature;BMP_pressure;BME280_temperature;BME280_humidity;BME280_pressure;Samples;Min_cycle;Max_cycle;Signal;HPM_P1;HPM_P2
2022/05/19 00:02:19;;;;;;;9.17;8.50;;;22.20;98.40;;;;;;5053271;28;20892;-66
2022/05/19 00:04:45;;;;;;;9.23;8.47;;;22.20;97.00;;;;;;5054064;28;20423;-67
2022/05/19 00:07:11;;;;;;;8.50;8.00;;;22.30;97.60;;;;;;5054275;28;20560;-66
2022/05/19 00:09:37;;;;;;;7.90;7.40;;;22.30;98.00;;;;;;5053945;28;20170;-74
2022/05/19 00:12:09;;;;;;;8.90;8.40;;;22.30;97.30;;;;;;5054239;28;20492;-66
2022/05/19 00:14:35;;;;;;;9.20;8.50;;;22.30;96.90;;;;;;5054296;28;20190;-66
2022/05/19 00:17:01;;;;;;;8.37;7.77;;;22.30;96.90;;;;;;5052300;28;20470;-66
2022/05/19 00:19:27;;;;;;;8.43;7.67;;;22.30;97.20;;;;;;5054145;28;20184;-66
2022/05/19 00:21:54;;;;;;;8.07;7.47;;;22.30;97.00;;;;;;5053752;28;20476;-67
2022/05/19 00:24:20;;;;;;;7.83;7.33;;;22.30;96.80;;;;;;5054101;28;20536;-66
2022/05/19 00:26:45;;;;;;;9.00;8.23;;;22.30;97.50;;;;;;5053246;28;20425;-66
2022/05/19 00:29:11;;;;;;;8.13;7.63;;;22.20;97.20;;;;;;5053939;28;20422;-66
2022/05/19 00:31:37;;;;;;;8.40;7.50;;;22.20;97.40;;;;;;5052326;28;20182;-66
2022/05/19 00:34:03;;;;;;;7.60;7.07;;;22.20;97.50;;;;;;5052950;28;20185;-66
2022/05/19 00:36:30;;;;;;;7.73;7.23;;;22.20;97.50;;;;;;5053639;28;20174;-66
2022/05/19 00:38:56;;;;;;;7.50;7.00;;;22.20;97.90;;;;;;5051547;28;20551;-66
2022/05/19 00:41:22;;;;;;;8.03;7.37;;;22.30;96.80;;;;;;5052407;28;20589;-67
2022/05/19 00:44:05;;;;;;;7.37;6.70;;;22.20;96.50;;;;;;5052228;28;20439;-67
2022/05/19 00:46:45;;;;;;;7.80;7.30;;;22.30;96.00;;;;;;5053621;28;20416;-66
2022/05/19 00:49:19;;;;;;;6.57;5.97;;;22.20;94.60;;;;;;5053800;28;20956;-66
2022/05/19 00:51:51;;;;;;;6.40;5.90;;;22.20;94.80;;;;;;5051947;28;20763;-67
2022/05/19 00:54:21;;;;;;;7.20;6.70;;;22.30;94.30;;;;;;5052254;28;20961;-67
2022/05/19 00:57:03;;;;;;;6.43;5.93;;;22.30;94.30;;;;;;5052877;28;20400;-66
2022/05/19 00:59:44;;;;;;;8.67;8.10;;;22.30;93.20;;;;;;5053509;28;20495;-66
2022/05/19 01:02:14;;;;;;;7.17;6.77;;;22.40;93.40;;;;;;5053326;28;20476;-66
2022/05/19 01:04:49;;;;;;;7.30;6.90;;;22.40;93.30;;;;;;5053183;28;20919;-72
2022/05/19 01:07:20;;;;;;;7.03;6.63;;;22.50;93.50;;;;;;5053178;28;20455;-66
2022/05/19 01:09:47;;;;;;;8.07;7.57;;;22.60;94.00;;;;;;5051336;28;20416;-67
2022/05/19 01:12:12;;;;;;;6.47;6.17;;;22.60;94.20;;;;;;5053090;28;20439;-67
2022/05/19 01:14:39;;;;;;;7.27;6.77;;;22.60;94.40;;;;;;5053097;28;20423;-67
2022/05/19 01:17:06;;;;;;;7.00;6.40;;;22.60;93.80;;;;;;5051155;28;20809;-67
2022/05/19 01:19:44;;;;;;;7.27;6.57;;;22.60;93.50;;;;;;5053139;28;20173;-66
2022/05/19 01:22:34;;;;;;;7.20;6.80;;;22.60;93.70;;;;;;5050331;28;20559;-67
2022/05/19 01:25:18;;;;;;;7.10;6.67;;;22.50;92.70;;;;;;5051666;28;20760;-66
2022/05/19 01:27:44;;;;;;;6.80;6.40;;;22.50;93.10;;;;;;5052204;28;20455;-67
2022/05/19 01:30:11;;;;;;;9.27;8.63;;;22.50;93.70;;;;;;5051593;28;20519;-66
2022/05/19 01:32:37;;;;;;;5.50;5.20;;;22.40;93.80;;;;;;5052821;28;20234;-67
2022/05/19 01:35:04;;;;;;;7.03;6.53;;;22.50;93.80;;;;;;5051073;28;20954;-66
2022/05/19 01:37:29;;;;;;;6.73;6.33;;;22.50;93.30;;;;;;5052936;28;20186;-66
2022/05/19 01:40:04;;;;;;;8.50;7.90;;;22.50;93.40;;;;;;5049543;28;20975;-67
2022/05/19 01:42:49;;;;;;;6.30;5.80;;;22.50;93.30;;;;;;5052748;28;20169;-66
2022/05/19 01:45:39;;;;;;;6.50;6.10;;;22.50;93.50;;;;;;5052623;28;20430;-67
2022/05/19 01:48:18;;;;;;;7.30;6.60;;;22.50;92.90;;;;;;5048498;28;20483;-67
2022/05/19 01:51:06;;;;;;;5.83;5.53;;;22.50;92.20;;;;;;5052362;28;20416;-71
2022/05/19 01:53:45;;;;;;;7.23;6.80;;;22.50;91.90;;;;;;5052636;28;20878;-66
2022/05/19 01:56:33;;;;;;;6.33;5.77;;;22.50;92.80;;;;;;5052600;28;20416;-66
2022/05/19 01:59:30;;;;;;;7.20;6.70;;;22.50;92.50;;;;;;5051713;28;20416;-66
2022/05/19 02:02:26;;;;;;;7.40;7.00;;;22.50;91.20;;;;;;5051555;28;20969;-66
2022/05/19 02:05:13;;;;;;;6.27;5.87;;;22.50;92.50;;;;;;5048580;28;20506;-67
2022/05/19 02:07:41;;;;;;;6.47;5.97;;;22.50;91.50;;;;;;5052106;28;20939;-66
2022/05/19 02:10:14;;;;;;;5.90;5.60;;;22.40;91.50;;;;;;5052066;28;20465;-66
2022/05/19 02:12:41;;;;;;;6.20;5.80;;;22.40;90.60;;;;;;5052082;28;20408;-66
2022/05/19 02:15:14;;;;;;;6.03;5.53;;;22.40;90.80;;;;;;5052020;28;20420;-67
2022/05/19 02:17:42;;;;;;;6.07;5.67;;;22.30;90.50;;;;;;5052365;28;20417;-66
2022/05/19 02:20:11;;;;;;;6.40;6.00;;;22.30;91.90;;;;;;5049332;28;20533;-67
2022/05/19 02:22:42;;;;;;;6.67;6.27;;;22.40;91.80;;;;;;5052400;28;20400;-67
2022/05/19 02:25:20;;;;;;;5.97;5.57;;;22.40;91.10;;;;;;5050855;28;20440;-66
2022/05/19 02:27:49;;;;;;;6.93;6.53;;;22.50;90.90;;;;;;5050457;28;20903;-70
2022/05/19 02:30:19;;;;;;;6.20;5.87;;;22.50;91.20;;;;;;5050960;28;20834;-66
2022/05/19 02:32:46;;;;;;;5.93;5.43;;;22.50;90.30;;;;;;5052191;28;20424;-67
2022/05/19 02:35:12;;;;;;;6.07;5.67;;;22.40;91.00;;;;;;5052131;28;20445;-67
2022/05/19 02:37:38;;;;;;;6.90;6.40;;;22.40;90.30;;;;;;5052327;28;20427;-66
2022/05/19 02:40:06;;;;;;;6.70;6.30;;;22.40;90.60;;;;;;5051523;28;20775;-66
2022/05/19 02:42:31;;;;;;;6.73;6.23;;;22.40;90.60;;;;;;5051721;28;20413;-66
2022/05/19 02:44:57;;;;;;;6.67;6.27;;;22.30;90.00;;;;;;5051394;28;20439;-67
2022/05/19 02:47:23;;;;;;;6.90;6.40;;;22.30;90.50;;;;;;5050917;28;20293;-66
2022/05/19 02:49:49;;;;;;;5.40;5.10;;;22.30;90.20;;;;;;5051037;28;20188;-67
2022/05/19 02:52:15;;;;;;;9.17;8.57;;;22.30;90.20;;;;;;5052017;28;20182;-66
2022/05/19 02:54:40;;;;;;;9.07;8.57;;;22.20;90.20;;;;;;5051648;28;20197;-66
2022/05/19 02:57:06;;;;;;;5.10;4.80;;;22.20;90.60;;;;;;5049196;28;20181;-67
2022/05/19 02:59:32;;;;;;;7.97;7.40;;;22.30;90.60;;;;;;5053327;28;20586;-66
2022/05/19 03:01:58;;;;;;;7.73;7.20;;;22.20;90.90;;;;;;5054993;28;20182;-67
2022/05/19 03:04:24;;;;;;;6.77;6.37;;;22.20;90.40;;;;;;5054519;28;20169;-66
2022/05/19 03:06:49;;;;;;;7.43;7.00;;;22.20;90.40;;;;;;5053592;28;20192;-67
2022/05/19 03:09:15;;;;;;;6.83;6.20;;;22.10;90.50;;;;;;5054492;28;20526;-67
2022/05/19 03:11:41;;;;;;;6.70;6.30;;;22.10;91.00;;;;;;5055148;28;20174;-66
2022/05/19 03:14:07;;;;;;;7.27;6.57;;;22.20;91.20;;;;;;5053604;28;20181;-66
2022/05/19 03:16:32;;;;;;;6.40;5.97;;;22.10;90.50;;;;;;5055305;28;20181;-66
2022/05/19 03:18:58;;;;;;;6.57;6.07;;;22.10;90.80;;;;;;5053647;28;20217;-67
2022/05/19 03:21:24;;;;;;;6.33;5.93;;;22.00;90.70;;;;;;5054817;28;20680;-66
2022/05/19 03:23:49;;;;;;;6.93;6.43;;;22.10;91.00;;;;;;5053429;28;20610;-67
2022/05/19 03:26:15;;;;;;;7.67;6.60;;;22.10;91.30;;;;;;5055189;28;20205;-67
2022/05/19 03:28:41;;;;;;;6.73;6.33;;;22.10;90.80;;;;;;5055002;28;20723;-67
2022/05/19 03:31:09;;;;;;;7.40;6.80;;;22.10;90.60;;;;;;5054441;28;20185;-66
2022/05/19 03:33:34;;;;;;;7.80;6.97;;;22.10;91.00;;;;;;5054979;28;20231;-66
2022/05/19 03:36:03;;;;;;;7.53;7.03;;;22.10;91.10;;;;;;5054373;28;20412;-67
2022/05/19 03:38:29;;;;;;;6.90;6.50;;;22.10;90.80;;;;;;5054627;28;20178;-66
2022/05/19 03:40:54;;;;;;;7.10;6.50;;;22.20;90.80;;;;;;5054532;28;20474;-67
2022/05/19 03:43:20;;;;;;;6.97;6.47;;;22.20;90.80;;;;;;5054844;28;20177;-67
2022/05/19 03:45:47;;;;;;;7.30;6.80;;;22.20;90.80;;;;;;5054416;28;20240;-66
2022/05/19 03:48:12;;;;;;;7.80;7.00;;;22.10;90.50;;;;;;5054028;28;20563;-67
2022/05/19 03:50:38;;;;;;;8.53;6.83;;;22.10;90.90;;;;;;5053523;28;20877;-66
2022/05/19 03:53:04;;;;;;;8.27;7.67;;;22.20;90.80;;;;;;5054038;28;20527;-67
2022/05/19 03:55:30;;;;;;;7.37;6.90;;;22.20;91.00;;;;;;5054217;28;20622;-67
2022/05/19 03:57:56;;;;;;;7.40;7.00;;;22.30;91.20;;;;;;5052847;28;20413;-67
2022/05/19 04:00:22;;;;;;;7.43;6.90;;;22.30;91.10;;;;;;5053278;28;20196;-66
2022/05/19 04:02:48;;;;;;;8.13;7.70;;;22.30;91.50;;;;;;5054456;28;20173;-66
2022/05/19 04:05:14;;;;;;;7.67;7.07;;;22.30;91.80;;;;;;5051600;28;20989;-67
2022/05/19 04:07:41;;;;;;;8.30;7.80;;;22.40;91.70;;;;;;5054301;28;20250;-67
2022/05/19 04:10:09;;;;;;;7.80;7.30;;;22.40;91.80;;;;;;5051916;28;20505;-67
2022/05/19 04:12:35;;;;;;;8.43;7.60;;;22.40;92.10;;;;;;5052988;28;20412;-67
2022/05/19 04:15:03;;;;;;;8.07;7.37;;;22.40;91.60;;;;;;5052976;28;20423;-67
2022/05/19 04:17:33;;;;;;;7.47;6.90;;;22.50;92.10;;;;;;5053983;28;20491;-67
2022/05/19 04:20:00;;;;;;;7.67;7.20;;;22.50;90.70;;;;;;5052269;28;20519;-67
2022/05/19 04:22:26;;;;;;;7.63;7.23;;;22.50;91.60;;;;;;5054279;28;20546;-66
2022/05/19 04:24:52;;;;;;;9.67;8.77;;;22.40;91.30;;;;;;5053164;28;20458;-73
2022/05/19 04:27:18;;;;;;;8.43;7.83;;;22.40;92.10;;;;;;5052936;28;20210;-66
2022/05/19 04:29:43;;;;;;;9.83;8.93;;;22.40;92.10;;;;;;5052661;28;20452;-67
2022/05/19 04:32:09;;;;;;;7.70;7.10;;;22.50;91.50;;;;;;5053298;28;20181;-66
2022/05/19 04:34:35;;;;;;;7.50;7.07;;;22.40;90.40;;;;;;5054138;28;20174;-66
2022/05/19 04:37:01;;;;;;;8.57;7.97;;;22.30;90.20;;;;;;5052025;28;20236;-67
2022/05/19 04:39:26;;;;;;;7.90;7.30;;;22.30;92.00;;;;;;5052880;28;20434;-66
2022/05/19 04:41:52;;;;;;;7.80;7.30;;;22.30;93.50;;;;;;5051616;28;20184;-66
2022/05/19 04:44:19;;;;;;;11.93;10.90;;;22.40;93.20;;;;;;5059361;28;20227;-67
2022/05/19 04:46:44;;;;;;;9.70;8.80;;;22.50;93.10;;;;;;5061308;28;20243;-67
2022/05/19 04:49:10;;;;;;;9.17;8.37;;;22.50;92.30;;;;;;5052695;28;20432;-67
2022/05/19 04:51:36;;;;;;;9.73;9.03;;;22.50;92.10;;;;;;5052017;28;20211;-67
2022/05/19 04:54:02;;;;;;;10.97;9.97;;;22.60;93.20;;;;;;5052330;28;20218;-67
2022/05/19 04:56:28;;;;;;;10.20;9.50;;;22.60;92.70;;;;;;5053426;28;20181;-67
2022/05/19 04:58:54;;;;;;;12.17;11.00;;;22.70;93.10;;;;;;5052495;28;20519;-67
2022/05/19 05:01:19;;;;;;;8.93;8.20;;;22.70;92.80;;;;;;5052585;28;20849;-66
2022/05/19 05:03:45;;;;;;;14.50;13.00;;;22.70;92.90;;;;;;5052827;28;20174;-66
2022/05/19 05:06:11;;;;;;;10.33;9.43;;;22.80;93.70;;;;;;5052123;28;20222;-67
2022/05/19 05:08:37;;;;;;;11.70;10.27;;;22.80;93.10;;;;;;5054038;28;21745;-66
2022/05/19 05:11:03;;;;;;;13.30;12.07;;;22.90;94.40;;;;;;5062909;28;20170;-67
2022/05/19 05:13:28;;;;;;;9.80;9.00;;;22.90;93.90;;;;;;5052702;28;20307;-66
2022/05/19 05:15:54;;;;;;;10.53;9.60;;;22.90;94.10;;;;;;5062585;28;20470;-66
2022/05/19 05:18:20;;;;;;;11.77;10.67;;;22.90;93.40;;;;;;5053270;28;20663;-67
2022/05/19 05:20:46;;;;;;;8.83;8.23;;;23.00;93.50;;;;;;5052149;28;20547;-66
2022/05/19 05:23:11;;;;;;;14.60;13.30;;;23.00;93.50;;;;;;5054692;28;20632;-67
2022/05/19 05:25:38;;;;;;;19.17;17.03;;;23.00;93.10;;;;;;5072155;28;20181;-67
2022/05/19 05:28:03;;;;;;;9.60;8.83;;;23.10;94.30;;;;;;5071530;28;20209;-67
2022/05/19 05:30:30;;;;;;;20.83;18.77;;;23.10;93.10;;;;;;5072116;28;20415;-66
2022/05/19 05:33:01;;;;;;;9.07;8.47;;;23.00;91.50;;;;;;5069152;28;20239;-67
2022/05/19 05:35:27;;;;;;;9.73;8.83;;;23.10;92.50;;;;;;5052299;28;20458;-66
2022/05/19 05:37:52;;;;;;;8.50;7.80;;;23.10;92.30;;;;;;5051406;28;20813;-67
2022/05/19 05:40:18;;;;;;;9.13;8.63;;;23.20;94.20;;;;;;5045746;28;20230;-65
2022/05/19 05:42:44;;;;;;;6.37;6.07;;;23.20;92.20;;;;;;5052265;28;20227;-66
2022/05/19 05:45:11;;;;;;;7.40;6.73;;;23.20;92.30;;;;;;5049108;28;20243;-65
2022/05/19 05:47:37;;;;;;;7.43;6.93;;;23.20;91.70;;;;;;5049017;28;20220;-65
2022/05/19 05:50:03;;;;;;;6.07;5.67;;;23.20;91.60;;;;;;5051041;28;20428;-66
2022/05/19 05:52:29;;;;;;;7.13;6.73;;;23.30;91.00;;;;;;5051080;28;20180;-65
2022/05/19 05:54:55;;;;;;;7.10;6.10;;;23.30;91.30;;;;;;5050569;28;20420;-65
2022/05/19 05:57:21;;;;;;;7.30;6.80;;;23.30;90.90;;;;;;5051105;28;20177;-65
2022/05/19 05:59:46;;;;;;;6.10;5.80;;;23.30;91.30;;;;;;5050972;28;20420;-65
2022/05/19 06:02:12;;;;;;;7.33;6.63;;;23.30;89.40;;;;;;5050145;28;20537;-65
2022/05/19 06:04:38;;;;;;;6.83;6.33;;;23.30;90.00;;;;;;5051222;28;20247;-65
2022/05/19 06:07:04;;;;;;;6.27;5.67;;;23.30;91.00;;;;;;5049758;28;20409;-66
2022/05/19 06:09:30;;;;;;;6.50;6.10;;;23.30;91.50;;;;;;5050158;28;20205;-65
2022/05/19 06:11:56;;;;;;;6.77;6.17;;;23.10;88.00;;;;;;5051821;28;20445;-66
2022/05/19 06:14:22;;;;;;;6.23;5.93;;;23.10;90.00;;;;;;5050237;28;20181;-66
2022/05/19 06:16:47;;;;;;;7.03;6.53;;;23.10;88.70;;;;;;5051534;28;20539;-66
2022/05/19 06:19:13;;;;;;;6.57;6.17;;;23.10;89.30;;;;;;5048987;28;20474;-67
2022/05/19 06:21:39;;;;;;;6.20;5.90;;;23.00;88.20;;;;;;5064192;28;20257;-67
2022/05/19 06:24:08;;;;;;;6.50;6.00;;;23.10;90.00;;;;;;5057688;28;20987;-66
2022/05/19 06:26:37;;;;;;;7.77;7.17;;;23.20;91.10;;;;;;5052120;28;20178;-67
2022/05/19 06:29:03;;;;;;;7.53;6.90;;;23.30;90.70;;;;;;5047052;28;20482;-69
2022/05/19 06:31:31;;;;;;;7.37;6.97;;;23.40;91.80;;;;;;5050331;28;20425;-66
2022/05/19 06:33:58;;;;;;;7.37;6.87;;;23.50;91.20;;;;;;5053272;28;20193;-66
2022/05/19 06:36:24;;;;;;;6.33;5.83;;;23.60;91.30;;;;;;5053577;28;20954;-69
2022/05/19 06:38:50;;;;;;;5.33;5.03;;;23.60;90.40;;;;;;5065608;28;20426;-66
2022/05/19 06:44:00;;;;;;;6.50;6.10;;;23.70;90.40;;;;;;5055406;28;20212;-66
2022/05/19 06:46:26;;;;;;;6.40;6.00;;;23.80;90.50;;;;;;5054652;28;20440;-65
2022/05/19 06:48:52;;;;;;;7.03;6.43;;;23.90;89.50;;;;;;5055580;28;20244;-65
2022/05/19 06:51:18;;;;;;;6.23;5.70;;;23.90;90.10;;;;;;5050079;28;20193;-65
2022/05/19 06:53:44;;;;;;;6.33;5.83;;;24.00;88.10;;;;;;5055328;28;20775;-65
2022/05/19 06:56:10;;;;;;;6.87;6.30;;;24.00;87.40;;;;;;5054322;28;20420;-66
2022/05/19 06:58:36;;;;;;;6.13;5.73;;;24.10;89.40;;;;;;5045135;28;20667;-66
2022/05/19 07:01:02;;;;;;;5.90;5.60;;;24.10;89.50;;;;;;5052282;28;20435;-70
2022/05/19 07:03:28;;;;;;;7.27;6.77;;;24.20;90.00;;;;;;5052765;28;20485;-66
2022/05/19 07:05:54;;;;;;;5.87;5.47;;;24.30;90.10;;;;;;5054539;28;20643;-65
2022/05/19 07:08:20;;;;;;;6.13;5.80;;;24.50;88.00;;;;;;5052396;28;20521;-65
2022/05/19 07:10:46;;;;;;;6.90;6.50;;;24.60;87.30;;;;;;5049420;28;20693;-65
2022/05/19 07:13:12;;;;;;;6.30;5.90;;;24.70;86.70;;;;;;5052950;28;20507;-65
2022/05/19 07:15:38;;;;;;;6.20;5.80;;;24.80;85.00;;;;;;5050044;28;20181;-65
2022/05/19 07:18:04;;;;;;;5.93;5.53;;;24.70;82.50;;;;;;5054592;28;20416;-69
2022/05/19 07:23:24;;;;;;;5.47;4.97;;;24.80;84.70;;;;;;5053871;28;20498;-65
2022/05/19 07:25:50;;;;;;;6.47;5.97;;;24.90;83.70;;;;;;5055252;28;20404;-65
2022/05/19 07:28:21;;;;;;;5.63;5.33;;;24.90;82.10;;;;;;5053434;28;20467;-65
2022/05/19 07:30:47;;;;;;;8.00;7.33;;;25.00;81.60;;;;;;5055115;28;20400;-65
2022/05/19 07:33:15;;;;;;;6.23;5.83;;;25.00;79.60;;;;;;5053496;28;20775;-65
2022/05/19 07:35:42;;;;;;;5.57;5.20;;;25.00;79.70;;;;;;5052270;28;20424;-66
2022/05/19 07:38:07;;;;;;;5.90;5.60;;;25.10;80.00;;;;;;5054285;28;20760;-66
2022/05/19 07:40:33;;;;;;;5.43;5.13;;;25.00;81.30;;;;;;5052375;28;20553;-67
2022/05/19 07:43:35;;;;;;;7.10;6.60;;;25.00;80.30;;;;;;5053866;28;20545;-65
2022/05/19 07:45:45;;;;;;;6.63;6.23;;;25.10;80.80;;;;;;5052499;28;20186;-65
2022/05/19 07:48:10;;;;;;;6.07;5.77;;;25.10;81.70;;;;;;5053252;28;20532;-66
2022/05/19 07:50:36;;;;;;;6.60;5.97;;;25.20;82.30;;;;;;5054664;28;20178;-65
2022/05/19 07:53:02;;;;;;;6.00;5.60;;;25.20;79.90;;;;;;5053417;28;20185;-65
2022/05/19 07:55:27;;;;;;;6.33;5.93;;;25.20;81.60;;;;;;5052183;28;20189;-66
2022/05/19 07:57:53;;;;;;;6.17;5.87;;;25.30;82.20;;;;;;5054616;28;20186;-66
2022/05/19 08:00:19;;;;;;;7.23;6.73;;;25.40;81.20;;;;;;5053547;28;20269;-66
2022/05/19 08:02:46;;;;;;;6.73;6.10;;;25.50;81.10;;;;;;5054738;28;20532;-65
2022/05/19 08:05:12;;;;;;;6.10;5.60;;;25.60;82.10;;;;;;5053485;28;20431;-66
2022/05/19 08:07:37;;;;;;;6.03;5.73;;;25.70;79.20;;;;;;5054219;28;20867;-65
2022/05/19 08:10:24;;;;;;;5.67;5.37;;;25.80;81.40;;;;;;5053815;28;20300;-66
2022/05/19 08:15:36;;;;;;;6.13;5.63;;;26.00;79.90;;;;;;5054171;28;20772;-65
2022/05/19 08:18:09;;;;;;;5.90;5.60;;;26.00;77.80;;;;;;5054102;28;20412;-65
2022/05/19 08:20:36;;;;;;;6.10;5.60;;;26.00;76.80;;;;;;5053926;28;20460;-65
2022/05/19 08:23:03;;;;;;;6.40;6.00;;;25.90;77.60;;;;;;5054087;28;20462;-65
2022/05/19 08:25:29;;;;;;;6.43;6.03;;;25.90;80.20;;;;;;5053424;28;20899;-65
2022/05/19 08:27:56;;;;;;;5.47;5.23;;;26.00;78.10;;;;;;5053876;28;20460;-66
2022/05/19 08:30:22;;;;;;;5.70;5.30;;;26.00;79.10;;;;;;5053279;28;20178;-65
2022/05/19 08:32:48;;;;;;;5.83;5.53;;;26.10;80.20;;;;;;5053828;28;20495;-65
2022/05/19 08:35:14;;;;;;;5.90;5.60;;;26.10;79.00;;;;;;5053217;28;20621;-65
2022/05/19 08:37:40;;;;;;;5.80;5.43;;;26.20;78.10;;;;;;5053796;28;20499;-65
2022/05/19 08:40:07;;;;;;;5.43;5.03;;;26.20;76.50;;;;;;5053743;28;20264;-65
2022/05/19 08:42:38;;;;;;;5.30;5.00;;;26.20;76.00;;;;;;5053731;28;20181;-65
2022/05/19 08:45:13;;;;;;;6.13;5.53;;;26.20;77.90;;;;;;5054027;28;20404;-66
2022/05/19 08:47:38;;;;;;;6.17;5.67;;;26.20;79.60;;;;;;5053595;28;20595;-66
2022/05/19 08:50:24;;;;;;;5.77;5.37;;;26.30;76.50;;;;;;5053619;28;20523;-65
2022/05/19 08:52:51;;;;;;;6.90;5.70;;;26.20;74.70;;;;;;5053688;28;20169;-66
2022/05/19 08:55:18;;;;;;;5.63;5.33;;;26.20;77.00;;;;;;5052855;28;20469;-66
2022/05/19 08:58:29;;;;;;;5.80;5.50;;;26.30;79.50;;;;;;5051855;28;20809;-65
2022/05/19 09:01:04;;;;;;;6.07;5.60;;;26.20;77.60;;;;;;5050273;28;20427;-65
2022/05/19 09:03:59;;;;;;;5.50;5.20;;;26.20;77.70;;;;;;5052793;28;20903;-65
2022/05/19 09:07:56;;;;;;;6.50;6.00;;;26.20;77.80;;;;;;5048289;28;20444;-65
2022/05/19 09:10:16;;;;;;;6.17;5.67;;;26.20;79.00;;;;;;5052114;28;20920;-66
2022/05/19 09:12:44;;;;;;;6.33;5.83;;;25.90;78.10;;;;;;5031214;28;20433;-65
2022/05/19 09:15:11;;;;;;;6.57;6.27;;;25.90;79.20;;;;;;5030193;28;20831;-67
2022/05/19 09:17:40;;;;;;;6.53;6.23;;;26.00;80.60;;;;;;5041613;28;20437;-65
2022/05/19 09:20:11;;;;;;;7.00;6.60;;;25.90;82.10;;;;;;5052765;28;20412;-65
2022/05/19 09:22:37;;;;;;;6.90;6.40;;;25.90;81.80;;;;;;5053145;28;20745;-65
2022/05/19 09:25:09;;;;;;;6.50;6.10;;;25.90;80.90;;;;;;5052987;28;20415;-65
2022/05/19 09:27:40;;;;;;;7.03;6.43;;;25.90;80.90;;;;;;5053094;28;20480;-65
2022/05/19 09:30:14;;;;;;;5.60;5.30;;;26.00;80.30;;;;;;5052946;28;20420;-65
2022/05/19 09:32:51;;;;;;;6.10;5.70;;;25.90;80.30;;;;;;5052869;28;20408;-65
2022/05/19 09:35:35;;;;;;;6.20;5.80;;;25.90;81.30;;;;;;5050679;28;20503;-66
2022/05/19 09:38:17;;;;;;;6.80;6.40;;;25.90;80.10;;;;;;5052802;28;20412;-65
2022/05/19 09:40:48;;;;;;;6.90;6.30;;;25.90;82.70;;;;;;5053082;28;20511;-65
2022/05/19 09:43:13;;;;;;;7.03;6.63;;;25.90;81.80;;;;;;5052052;28;20422;-66
2022/05/19 09:45:51;;;;;;;7.70;7.10;;;26.00;82.20;;;;;;5051783;28;20920;-66
2022/05/19 09:48:24;;;;;;;6.90;6.50;;;26.20;82.90;;;;;;5051731;28;20208;-66
2022/05/19 09:50:50;;;;;;;7.70;7.00;;;26.30;82.40;;;;;;5052650;28;20852;-65
2022/05/19 09:53:28;;;;;;;7.63;7.03;;;26.40;81.50;;;;;;5051680;28;20454;-66
2022/05/19 09:56:08;;;;;;;7.30;6.73;;;26.70;82.60;;;;;;5052572;28;20427;-65
2022/05/19 09:58:38;;;;;;;6.77;6.10;;;26.80;77.50;;;;;;5050789;28;20408;-65
2022/05/19 10:01:38;;;;;;;7.60;7.10;;;26.80;79.50;;;;;;5052559;28;20400;-65
2022/05/19 10:04:14;;;;;;;6.50;6.10;;;27.00;80.70;;;;;;5049205;28;20416;-65
2022/05/19 10:06:57;;;;;;;7.03;6.43;;;27.10;77.50;;;;;;5052451;28;20400;-65
2022/05/19 10:09:32;;;;;;;6.50;6.10;;;27.20;77.20;;;;;;5052008;28;20424;-65
2022/05/19 10:12:09;;;;;;;7.40;6.80;;;27.10;77.10;;;;;;5056503;28;20400;-65
2022/05/19 10:14:35;;;;;;;6.67;6.30;;;27.10;78.10;;;;;;5054548;28;20392;-65
2022/05/19 10:17:13;;;;;;;7.00;6.43;;;27.40;81.00;;;;;;5056211;28;20536;-65
2022/05/19 10:20:00;;;;;;;6.70;6.20;;;27.60;80.20;;;;;;5056679;28;20454;-66
2022/05/19 10:22:29;;;;;;;6.40;6.00;;;27.70;79.20;;;;;;5055888;28;20527;-66
2022/05/19 10:25:11;;;;;;;6.47;5.97;;;27.90;75.80;;;;;;5056281;28;20785;-65
2022/05/19 10:31:12;;;;;;;6.90;6.27;;;28.20;77.20;;;;;;5056254;28;20392;-65
2022/05/19 10:33:57;;;;;;;6.90;6.50;;;28.40;76.10;;;;;;5055607;28;20419;-65
2022/05/19 10:36:33;;;;;;;7.30;6.90;;;28.50;75.00;;;;;;5055551;28;20773;-65
2022/05/19 10:39:29;;;;;;;7.07;6.70;;;28.40;73.50;;;;;;5056245;28;20408;-65
2022/05/19 10:42:17;;;;;;;7.23;6.83;;;28.40;71.80;;;;;;5053348;28;20962;-65
2022/05/19 10:45:25;;;;;;;7.03;6.63;;;28.50;75.40;;;;;;5055568;28;20419;-65
2022/05/19 10:48:00;;;;;;;6.70;6.40;;;28.70;73.40;;;;;;5055384;28;20493;-65
2022/05/19 10:50:33;;;;;;;7.03;6.63;;;28.70;68.90;;;;;;5055074;28;20407;-66
2022/05/19 10:53:24;;;;;;;7.27;6.77;;;28.70;70.90;;;;;;5055805;28;20454;-66
2022/05/19 10:56:08;;;;;;;6.83;6.33;;;28.80;71.50;;;;;;5055481;28;20769;-66
2022/05/19 10:58:51;;;;;;;7.40;7.00;;;28.90;69.70;;;;;;5054748;28;20412;-65
2022/05/19 11:01:37;;;;;;;7.10;6.67;;;28.90;70.70;;;;;;5070583;28;20509;-66
2022/05/19 11:04:27;;;;;;;7.00;6.50;;;28.90;70.10;;;;;;5055648;28;20440;-65
2022/05/19 11:07:23;;;;;;;7.50;7.10;;;28.90;69.30;;;;;;5071072;28;20416;-65
2022/05/19 11:10:22;;;;;;;7.43;6.80;;;28.80;69.90;;;;;;5054448;28;20458;-66
2022/05/19 11:13:00;;;;;;;6.60;6.30;;;28.80;70.90;;;;;;5054305;28;20405;-65
2022/05/19 11:15:39;;;;;;;7.37;6.73;;;29.00;71.30;;;;;;5054859;28;20507;-66
2022/05/19 11:18:12;;;;;;;7.10;6.70;;;29.10;70.60;;;;;;5055502;28;20499;-65
2022/05/19 11:21:06;;;;;;;8.87;7.00;;;29.00;68.90;;;;;;5054138;28;20479;-65
2022/05/19 11:24:06;;;;;;;7.57;7.13;;;29.10;73.40;;;;;;5036257;28;20416;-65
2022/05/19 11:26:42;;;;;;;6.97;6.57;;;29.20;67.50;;;;;;5053955;28;20860;-66
2022/05/19 11:29:48;;;;;;;7.37;6.97;;;29.10;65.80;;;;;;5055186;28;20945;-65
2022/05/19 11:32:43;;;;;;;7.67;7.00;;;29.20;68.40;;;;;;5032831;28;20432;-65
2022/05/19 11:35:32;;;;;;;7.23;6.63;;;29.10;67.80;;;;;;5030767;28;20425;-65
2022/05/19 11:38:23;;;;;;;7.43;6.93;;;29.20;71.20;;;;;;5051391;28;20436;-65
2022/05/19 11:41:05;;;;;;;6.80;6.50;;;29.40;71.30;;;;;;5055082;28;20743;-66
2022/05/19 11:43:40;;;;;;;6.83;6.43;;;29.50;69.90;;;;;;5054247;28;20530;-65
2022/05/19 11:46:15;;;;;;;6.73;6.30;;;29.60;70.40;;;;;;5054846;28;20404;-65
2022/05/19 11:55:30;;;;;;;8.03;7.53;;;29.70;67.80;;;;;;5054140;28;20408;-65
2022/05/19 11:58:12;;;;;;;5.97;5.57;;;29.70;68.90;;;;;;5055072;28;20401;-66
2022/05/19 12:00:40;;;;;;;7.40;7.00;;;29.80;68.20;;;;;;5053910;28;20444;-65
2022/05/19 12:03:14;;;;;;;7.50;7.10;;;29.80;67.90;;;;;;5054463;28;20416;-65
2022/05/19 12:05:52;;;;;;;6.83;6.33;;;29.80;66.20;;;;;;5053960;28;20500;-66
2022/05/19 12:08:44;;;;;;;7.90;7.40;;;29.80;67.90;;;;;;5054445;28;20451;-66
2022/05/19 12:11:33;;;;;;;7.00;6.50;;;29.80;68.50;;;;;;5045898;28;20428;-65
2022/05/19 12:14:25;;;;;;;9.07;8.57;;;29.80;64.90;;;;;;5053958;28;20494;-65
2022/05/19 12:17:09;;;;;;;7.27;6.93;;;29.60;67.80;;;;;;5053906;28;20424;-65
2022/05/19 12:19:47;;;;;;;7.10;6.70;;;29.80;70.20;;;;;;5052057;28;20446;-66
2022/05/19 12:22:55;;;;;;;6.97;6.57;;;29.90;67.40;;;;;;5052114;28;20967;-65
2022/05/19 12:25:25;;;;;;;6.43;5.93;;;29.70;65.70;;;;;;5052873;28;20466;-71
2022/05/19 12:28:05;;;;;;;7.90;7.27;;;29.60;66.40;;;;;;5053784;28;20499;-65
2022/05/19 12:33:26;;;;;;;7.30;6.80;;;29.30;65.30;;;;;;5052938;28;20928;-65
2022/05/19 12:35:59;;;;;;;8.60;7.90;;;29.00;66.20;;;;;;5054062;28;20431;-65
2022/05/19 12:38:43;;;;;;;7.40;5.60;;;28.80;66.90;;;;;;5053252;28;20401;-65
2022/05/19 12:41:32;;;;;;;7.23;6.80;;;28.70;67.50;;;;;;5053752;28;20416;-65
2022/05/19 12:44:38;;;;;;;7.03;6.37;;;28.70;70.10;;;;;;5053612;28;20557;-65
2022/05/19 12:47:21;;;;;;;6.27;5.87;;;28.70;69.50;;;;;;5053623;28;20401;-65
2022/05/19 12:50:02;;;;;;;7.50;7.10;;;28.80;69.90;;;;;;5053285;28;20520;-65
2022/05/19 12:52:47;;;;;;;8.60;8.10;;;29.00;68.40;;;;;;5052969;28;20427;-66
2022/05/19 12:55:24;;;;;;;8.17;7.50;;;29.00;66.70;;;;;;5053272;28;20966;-65
2022/05/19 12:57:56;;;;;;;6.43;5.93;;;29.10;65.50;;;;;;5053423;28;20420;-66
2022/05/19 13:00:37;;;;;;;7.40;6.90;;;29.10;67.30;;;;;;5053351;28;20416;-66
2022/05/19 13:03:07;;;;;;;7.30;6.90;;;29.10;67.90;;;;;;5053443;28;20416;-66
2022/05/19 13:05:54;;;;;;;6.57;6.17;;;29.10;68.40;;;;;;5052511;28;20400;-66
2022/05/19 13:08:37;;;;;;;6.40;5.90;;;29.30;69.00;;;;;;5052947;28;20470;-66
2022/05/19 13:11:11;;;;;;;7.50;7.10;;;29.30;67.50;;;;;;5053200;28;20541;-66
2022/05/19 13:13:43;;;;;;;7.27;6.60;;;29.30;68.20;;;;;;5052272;28;20401;-66
2022/05/19 13:16:19;;;;;;;8.33;7.93;;;29.30;69.60;;;;;;5053101;28;20416;-66
2022/05/19 13:18:55;;;;;;;6.10;5.70;;;29.30;69.20;;;;;;5050932;28;20906;-66
2022/05/19 13:21:37;;;;;;;8.37;7.87;;;29.30;66.30;;;;;;5053176;28;20546;-66
2022/05/19 13:24:06;;;;;;;8.20;7.70;;;29.20;66.70;;;;;;5053290;28;20440;-65
2022/05/19 13:26:37;;;;;;;6.70;6.30;;;29.20;67.40;;;;;;5052431;28;20405;-66
2022/05/19 13:32:13;;;;;;;8.63;7.83;;;28.90;66.60;;;;;;5052954;28;20396;-65
2022/05/19 13:34:46;;;;;;;7.30;6.70;;;28.80;66.50;;;;;;5052325;28;20407;-65
2022/05/19 13:37:13;;;;;;;6.83;6.33;;;28.70;67.80;;;;;;5052719;28;20412;-65